Time;durP1;ratioP1;P1;durP2;ratioP2;P2;SDS_P1;SDS_P2;PMS_P1;PMS_P2;Temp;Humidity;BMP_temperature;BMP_pressure;BME280_temperature;BME280_humidity;BME280_pressure;Samples;Min_cycle;Max_cycle;Signal;HPM_P1;HPM_P2
2021/09/22 00:01:36;;;;;;;;;;;;;;;3.37;78.74;98000.36;116705;1177;59541;-67
2021/09/22 00:04:06;;;;;;;;;;;;;;;3.39;76.31;97998.56;116763;1177;59542;-66
2021/09/22 00:06:36;;;;;;;;;;;;;;;3.39;76.42;97998.05;116885;1177;70598;-65
2021/09/22 00:09:07;;;;;;;;;;;;;;;3.38;76.92;97995.33;117062;1177;69327;-65
2021/09/22 00:11:37;;;;;;;;;;;;;;;3.35;77.44;97998.38;116820;1178;68510;-68
2021/09/22 00:14:06;;;;;;;;;;;;;;;3.31;77.63;97993.48;117030;1177;59538;-66
2021/09/22 00:16:36;;;;;;;;;;;;;;;3.27;78.65;97991.74;116825;1179;59545;-67
2021/09/22 00:19:06;;;;;;;;;;;;;;;3.23;79.75;97988.95;116964;1177;71441;-69
2021/09/22 00:21:35;;;;;;;;;;;;;;;3.21;79.82;97984.35;117013;1177;68339;-65
2021/09/22 00:24:06;;;;;;;;;;;;;;;3.22;78.66;97981.74;116708;1177;68427;-67
2021/09/22 00:26:36;;;;;;;;;;;;;;;3.23;78.38;97979.13;116614;1179;59498;-65
2021/09/22 00:29:07;;;;;;;;;;;;;;;3.24;78.73;97980.46;116644;1178;59545;-65
2021/09/22 00:31:37;;;;;;;;;;;;;;;3.26;78.57;97980.90;116871;1177;70984;-64
2021/09/22 00:34:07;;;;;;;;;;;;;;;3.28;79.46;97979.63;116802;1177;68460;-66
2021/09/22 00:36:37;;;;;;;;;;;;;;;3.26;82.22;97979.89;116886;1177;69235;-67
2021/09/22 00:39:07;;;;;;;;;;;;;;;3.27;81.29;97983.96;117049;1177;59606;-66
2021/09/22 00:41:37;;;;;;;;;;;;;;;3.30;79.90;97983.38;116521;1179;59577;-65
2021/09/22 00:44:07;;;;;;;;;;;;;;;3.31;79.17;97980.90;116716;1178;70496;-63
2021/09/22 00:46:37;;;;;;;;;;;;;;;3.33;78.88;97979.13;116841;1177;68404;-67
2021/09/22 00:49:08;;;;;;;;;;;;;;;3.35;79.59;97975.43;116789;1177;68499;-66
2021/09/22 00:51:43;;;;;;;;;;;;;;;3.37;80.44;97974.50;117085;1177;59518;-65
2021/09/22 00:54:13;;;;;;;;;;;;;;;3.39;79.44;97972.02;116744;1177;59541;-65
2021/09/22 00:56:44;;;;;;;;;;;;;;;3.41;78.40;97969.89;116713;1177;70581;-67
2021/09/22 00:59:14;;;;;;;;;;;;;;;3.43;77.48;97962.07;116737;1177;70251;-67
2021/09/22 01:01:49;;;;;;;;;;;;;;;3.43;78.22;97964.30;116629;1178;67702;-65
2021/09/22 01:04:20;;;;;;;;;;;;;;;3.45;77.77;97955.59;116775;1178;59561;-65
2021/09/22 01:06:50;;;;;;;;;;;;;;;3.46;77.83;97954.52;116773;1176;59522;-64
2021/09/22 01:09:20;;;;;;;;;;;;;;;3.49;76.21;97950.98;116648;1177;71367;-66
2021/09/22 01:11:50;;;;;;;;;;;;;;;3.48;76.80;97947.39;116871;1177;68077;-65
2021/09/22 01:14:22;;;;;;;;;;;;;;;3.47;77.32;97942.11;116848;1177;68333;-67
2021/09/22 01:16:54;;;;;;;;;;;;;;;3.41;80.24;97939.56;116758;1177;59517;-65
2021/09/22 01:19:28;;;;;;;;;;;;;;;3.41;78.77;97933.70;117061;1177;59538;-66
2021/09/22 01:21:59;;;;;;;;;;;;;;;3.39;79.00;97930.16;117088;1177;71368;-66
2021/09/22 01:24:42;;;;;;;;;;;;;;;3.35;80.10;97926.84;117110;1177;68431;-66
2021/09/22 01:27:12;;;;;;;;;;;;;;;3.33;79.49;97927.09;116708;1178;68884;-67
2021/09/22 01:29:42;;;;;;;;;;;;;;;3.31;79.44;97924.91;116661;1178;59564;-64
2021/09/22 01:32:13;;;;;;;;;;;;;;;3.30;79.55;97923.58;116679;1179;59577;-66
2021/09/22 01:34:43;;;;;;;;;;;;;;;3.31;79.26;97922.14;116799;1177;70913;-64
2021/09/22 01:37:21;;;;;;;;;;;;;;;3.32;80.96;97928.15;116706;1178;68564;-67
2021/09/22 01:40:11;;;;;;;;;;;;;;;3.32;79.71;97925.40;116720;1177;68550;-65
2021/09/22 01:42:42;;;;;;;;;;;;;;;3.34;78.97;97926.21;116691;1179;59558;-65
2021/09/22 01:45:14;;;;;;;;;;;;;;;3.34;80.37;97917.41;116846;1177;59513;-65
2021/09/22 01:47:45;;;;;;;;;;;;;;;3.36;79.42;97915.12;116702;1177;70492;-65
2021/09/22 01:50:18;;;;;;;;;;;;;;;3.36;78.85;97911.98;116669;1179;68972;-64
2021/09/22 01:52:49;;;;;;;;;;;;;;;3.38;79.90;97906.08;116698;1177;68523;-65
2021/09/22 01:55:21;;;;;;;;;;;;;;;3.40;79.94;97910.63;116617;1178;59538;-66
2021/09/22 01:57:57;;;;;;;;;;;;;;;3.42;80.32;97914.19;116816;1178;59529;-66
2021/09/22 02:00:47;;;;;;;;;;;;;;;3.44;82.34;97913.08;116716;1178;70613;-67
2021/09/22 02:03:25;;;;;;;;;;;;;;;3.47;80.90;97909.38;117038;1178;69202;-67
2021/09/22 02:06:03;;;;;;;;;;;;;;;3.49;80.71;97904.45;116758;1177;68620;-65
2021/09/22 02:08:34;;;;;;;;;;;;;;;3.51;79.78;97908.16;116778;1177;59526;-66
2021/09/22 02:11:14;;;;;;;;;;;;;;;3.54;79.74;97907.38;117092;1177;59535;-66
2021/09/22 02:13:45;;;;;;;;;;;;;;;3.56;80.04;97905.93;116703;1177;70792;-65
2021/09/22 02:16:19;;;;;;;;;;;;;;;3.57;81.53;97904.15;116978;1177;68289;-65
2021/09/22 02:19:24;;;;;;;;;;;;;;;3.60;80.66;97902.34;116532;1180;69068;-65
2021/09/22 02:22:01;;;;;;;;;;;;;;;3.63;81.17;97893.80;116657;1177;59491;-65
2021/09/22 02:24:42;;;;;;;;;;;;;;;3.66;80.43;97891.95;117076;1177;59469;-66
2021/09/22 02:27:15;;;;;;;;;;;;;;;3.69;79.62;97894.94;116929;1178;71381;-66
2021/09/22 02:29:46;;;;;;;;;;;;;;;3.71;82.03;97898.16;116780;1177;67468;-67
2021/09/22 02:32:18;;;;;;;;;;;;;;;3.70;82.96;97892.51;116787;1177;69121;-66
2021/09/22 02:34:48;;;;;;;;;;;;;;;3.70;80.84;97885.40;116695;1178;59566;-66
2021/09/22 02:37:22;;;;;;;;;;;;;;;3.72;79.71;97880.52;116727;1179;59581;-65
2021/09/22 02:40:14;;;;;;;;;;;;;;;3.74;78.92;97882.34;116650;1177;71433;-65
2021/09/22 02:42:45;;;;;;;;;;;;;;;3.76;78.48;97882.95;116690;1178;69208;-64
2021/09/22 02:45:16;;;;;;;;;;;;;;;3.78;80.11;97882.34;116676;1179;69360;-65
2021/09/22 02:47:53;;;;;;;;;;;;;;;3.81;79.45;97881.73;116698;1178;59510;-68
2021/09/22 02:50:27;;;;;;;;;;;;;;;3.83;81.58;97875.77;116713;1177;60216;-65
2021/09/22 02:52:58;;;;;;;;;;;;;;;3.85;80.35;97876.22;116665;1179;70589;-66
2021/09/22 02:55:28;;;;;;;;;;;;;;;3.88;80.21;97874.04;116766;1177;69226;-67
2021/09/22 02:58:03;;;;;;;;;;;;;;;3.90;79.77;97874.65;116812;1177;68572;-66
2021/09/22 03:00:33;;;;;;;;;;;;;;;3.93;80.97;97871.94;116636;1179;59545;-65
2021/09/22 03:03:04;;;;;;;;;;;;;;;3.96;81.77;97876.48;117003;1177;59524;-65
2021/09/22 03:05:50;;;;;;;;;;;;;;;3.95;82.30;97872.73;116721;1177;71194;-67
2021/09/22 03:08:20;;;;;;;;;;;;;;;3.94;83.13;97869.15;116856;1178;68175;-66
2021/09/22 03:10:50;;;;;;;;;;;;;;;3.94;82.00;97866.42;116821;1177;69314;-65
2021/09/22 03:13:22;;;;;;;;;;;;;;;3.95;80.85;97865.66;116537;1178;59574;-66
2021/09/22 03:15:52;;;;;;;;;;;;;;;3.97;80.62;97861.09;116717;1178;59501;-65
2021/09/22 03:18:23;;;;;;;;;;;;;;;3.99;80.72;97858.60;116725;1178;71368;-66
2021/09/22 03:20:53;;;;;;;;;;;;;;;4.02;78.87;97851.95;116878;1177;68503;-65
2021/09/22 03:23:23;;;;;;;;;;;;;;;4.03;80.42;97849.13;116856;1177;68509;-65
2021/09/22 03:25:56;;;;;;;;;;;;;;;4.04;81.13;97841.33;116827;1177;59507;-63
2021/09/22 03:28:26;;;;;;;;;;;;;;;4.05;81.14;97838.16;116766;1178;59531;-65
2021/09/22 03:30:56;;;;;;;;;;;;;;;4.06;79.88;97842.09;116726;1180;70665;-66
2021/09/22 03:33:27;;;;;;;;;;;;;;;4.08;79.93;97844.09;116867;1177;69204;-66
2021/09/22 03:35:57;;;;;;;;;;;;;;;4.10;79.73;97843.51;116572;1179;68631;-65
2021/09/22 03:38:27;;;;;;;;;;;;;;;4.11;79.41;97841.05;116695;1177;59558;-65
2021/09/22 03:41:00;;;;;;;;;;;;;;;4.12;79.04;97833.46;117034;1178;59453;-67
2021/09/22 03:43:29;;;;;;;;;;;;;;;4.12;77.95;97826.37;116636;1179;70857;-64
2021/09/22 03:46:01;;;;;;;;;;;;;;;4.12;78.93;97820.69;116665;1179;68135;-66
2021/09/22 03:48:32;;;;;;;;;;;;;;;4.10;80.53;97820.75;116719;1177;69234;-65
2021/09/22 03:51:01;;;;;;;;;;;;;;;4.10;78.79;97832.80;116721;1178;59511;-66
2021/09/22 03:53:39;;;;;;;;;;;;;;;4.09;78.76;97835.60;116774;1178;59576;-65
2021/09/22 03:56:09;;;;;;;;;;;;;;;4.09;78.69;97835.10;116647;1179;70575;-65
2021/09/22 03:58:39;;;;;;;;;;;;;;;4.09;79.86;97834.91;116732;1178;67751;-65
2021/09/22 04:01:10;;;;;;;;;;;;;;;4.09;81.39;97831.45;116712;1178;68446;-65
2021/09/22 04:03:40;;;;;;;;;;;;;;;4.11;80.64;97830.00;116833;1177;59501;-66
2021/09/22 04:06:10;;;;;;;;;;;;;;;4.13;79.56;97818.39;116750;1177;59535;-67
2021/09/22 04:08:40;;;;;;;;;;;;;;;4.15;80.12;97811.73;116785;1177;70589;-65
2021/09/22 04:11:10;;;;;;;;;;;;;;;4.15;79.33;97813.30;116724;1177;69389;-65
2021/09/22 04:13:40;;;;;;;;;;;;;;;4.11;81.98;97822.77;116612;1179;69371;-65
2021/09/22 04:16:09;;;;;;;;;;;;;;;4.11;79.37;97829.52;116684;1178;59533;-65
2021/09/22 04:18:40;;;;;;;;;;;;;;;4.08;78.73;97826.34;116749;1178;59522;-65
2021/09/22 04:21:09;;;;;;;;;;;;;;;4.08;78.55;97823.75;116650;1177;70580;-66
2021/09/22 04:23:39;;;;;;;;;;;;;;;4.08;79.80;97824.61;116706;1179;69331;-72
2021/09/22 04:26:09;;;;;;;;;;;;;;;4.09;80.84;97823.35;116985;1178;68591;-68
2021/09/22 04:28:40;;;;;;;;;;;;;;;4.13;81.33;97819.77;116671;1177;59526;-65
2021/09/22 04:31:28;;;;;;;;;;;;;;;4.18;80.27;97819.05;116811;1177;59493;-65
2021/09/22 04:34:16;;;;;;;;;;;;;;;4.23;79.93;97818.15;116818;1177;71302;-66
2021/09/22 04:37:04;;;;;;;;;;;;;;;4.25;83.22;97817.55;116688;1177;68474;-64
2021/09/22 04:39:53;;;;;;;;;;;;;;;4.27;80.93;97814.70;116748;1178;68438;-67
2021/09/22 04:42:42;;;;;;;;;;;;;;;4.32;82.50;97806.23;116710;1178;59947;-66
2021/09/22 04:45:34;;;;;;;;;;;;;;;4.36;82.51;97803.13;116656;1177;59536;-69
2021/09/22 04:48:27;;;;;;;;;;;;;;;4.42;82.31;97809.27;116856;1177;70886;-64
2021/09/22 04:51:19;;;;;;;;;;;;;;;4.47;82.13;97814.06;116702;1177;68417;-67
2021/09/22 04:54:09;;;;;;;;;;;;;;;4.50;82.09;97819.80;116664;1177;68477;-66
2021/09/22 04:56:57;;;;;;;;;;;;;;;4.54;80.43;97824.11;116662;1177;59543;-66
2021/09/22 04:59:45;;;;;;;;;;;;;;;4.57;80.60;97823.61;116734;1176;59542;-66
2021/09/22 05:02:33;;;;;;;;;;;;;;;4.55;81.63;97824.60;116741;1177;70696;-67
2021/09/22 05:05:21;;;;;;;;;;;;;;;4.57;80.46;97829.17;116737;1177;68748;-67
2021/09/22 05:08:10;;;;;;;;;;;;;;;4.55;79.95;97828.73;116719;1177;68559;-65
2021/09/22 05:10:58;;;;;;;;;;;;;;;4.53;79.95;97832.27;116865;1177;59551;-66
2021/09/22 05:13:46;;;;;;;;;;;;;;;4.55;79.53;97831.33;116752;1177;59551;-67
2021/09/22 05:16:34;;;;;;;;;;;;;;;4.57;79.32;97827.42;116856;1177;70594;-67
2021/09/22 05:19:22;;;;;;;;;;;;;;;4.58;79.71;97818.08;117029;1178;69218;-67
2021/09/22 05:22:15;;;;;;;;;;;;;;;4.61;79.46;97822.60;116832;1177;68425;-66
2021/09/22 05:25:04;;;;;;;;;;;;;;;4.62;80.46;97822.21;116863;1177;59543;-67
2021/09/22 05:27:52;;;;;;;;;;;;;;;4.67;79.27;97823.56;116872;1177;59580;-70
2021/09/22 05:30:40;;;;;;;;;;;;;;;4.71;79.32;97827.70;116934;1177;70843;-66
2021/09/22 05:33:28;;;;;;;;;;;;;;;4.78;78.98;97828.79;116951;1177;68457;-67
2021/09/22 05:36:16;;;;;;;;;;;;;;;4.81;80.22;97831.08;116794;1177;68451;-67
2021/09/22 05:39:04;;;;;;;;;;;;;;;4.85;80.58;97835.04;116824;1177;59539;-64
2021/09/22 05:41:52;;;;;;;;;;;;;;;4.91;79.41;97832.36;116929;1177;59513;-66
2021/09/22 05:44:40;;;;;;;;;;;;;;;4.98;79.14;97834.48;116850;1177;71602;-65
2021/09/22 05:47:29;;;;;;;;;;;;;;;5.03;78.95;97832.71;116835;1178;68502;-70
2021/09/22 05:50:17;;;;;;;;;;;;;;;5.10;78.72;97832.24;116858;1177;69357;-66
2021/09/22 05:53:05;;;;;;;;;;;;;;;5.15;78.68;97831.16;116838;1177;59523;-67
2021/09/22 05:55:53;;;;;;;;;;;;;;;5.22;80.45;97827.57;116936;1177;59477;-66
2021/09/22 05:59:01;;;;;;;;;;;;;;;5.28;79.29;97826.58;116538;1181;70630;-65
2021/09/22 06:01:48;;;;;;;;;;;;;;;5.33;79.99;97825.48;116281;1182;69328;-65
2021/09/22 06:04:36;;;;;;;;;;;;;;;5.37;79.60;97826.35;116579;1178;70052;-65
2021/09/22 06:07:24;;;;;;;;;;;;;;;5.43;78.72;97826.59;116872;1177;59542;-66
2021/09/22 06:10:09;;;;;;;;;;;;;;;5.46;78.93;97823.89;116898;1177;59491;-66
2021/09/22 06:12:47;;;;;;;;;;;;;;;5.44;79.37;97821.02;116890;1177;70672;-67
2021/09/22 06:15:16;;;;;;;;;;;;;;;5.45;78.88;97817.19;116824;1178;69274;-66
2021/09/22 06:17:45;;;;;;;;;;;;;;;5.44;80.21;97812.23;116828;1177;69403;-68
2021/09/22 06:20:15;;;;;;;;;;;;;;;5.41;81.78;97816.16;116759;1179;59583;-65
2021/09/22 06:22:44;;;;;;;;;;;;;;;5.42;80.91;97818.69;116862;1177;59532;-65
2021/09/22 06:25:14;;;;;;;;;;;;;;;5.40;81.03;97824.33;116809;1178;71123;-64
2021/09/22 06:27:43;;;;;;;;;;;;;;;5.44;79.85;97825.18;116876;1177;69373;-64
2021/09/22 06:30:13;;;;;;;;;;;;;;;5.49;80.52;97823.07;116838;1178;69303;-65
2021/09/22 06:32:43;;;;;;;;;;;;;;;5.51;80.27;97820.71;116852;1177;59577;-64
2021/09/22 06:35:28;;;;;;;;;;;;;;;5.54;79.41;97825.92;116935;1177;59561;-65
2021/09/22 06:38:00;;;;;;;;;;;;;;;5.61;79.07;97828.72;116838;1178;70824;-64
2021/09/22 06:40:37;;;;;;;;;;;;;;;5.68;78.93;97834.95;116845;1177;69530;-65
2021/09/22 06:43:06;;;;;;;;;;;;;;;5.73;78.83;97834.56;117095;1177;68638;-65
2021/09/22 06:45:35;;;;;;;;;;;;;;;5.78;78.88;97833.79;116916;1177;59561;-65
2021/09/22 06:48:04;;;;;;;;;;;;;;;5.83;78.71;97835.30;116906;1177;59532;-65
2021/09/22 06:50:33;;;;;;;;;;;;;;;5.88;78.69;97838.55;116927;1177;71438;-65
2021/09/22 06:53:03;;;;;;;;;;;;;;;5.90;79.93;97838.48;117007;1177;69197;-66
2021/09/22 06:55:32;;;;;;;;;;;;;;;5.91;79.25;97835.82;116906;1177;69021;-67
2021/09/22 06:58:02;;;;;;;;;;;;;;;5.96;78.72;97832.68;116953;1177;59544;-66
2021/09/22 07:00:33;;;;;;;;;;;;;;;6.02;78.49;97838.06;116904;1177;59521;-65
2021/09/22 07:03:05;;;;;;;;;;;;;;;6.07;79.42;97835.23;117117;1177;71118;-66
2021/09/22 07:05:35;;;;;;;;;;;;;;;6.12;78.73;97829.27;117061;1177;68508;-65
2021/09/22 07:08:03;;;;;;;;;;;;;;;6.14;78.40;97828.31;116891;1177;68470;-66
2021/09/22 07:10:34;;;;;;;;;;;;;;;6.15;78.68;97827.08;116925;1177;59532;-66
2021/09/22 07:13:03;;;;;;;;;;;;;;;6.12;78.48;97826.52;116813;1177;59532;-70
2021/09/22 07:15:32;;;;;;;;;;;;;;;6.07;79.20;97827.60;116952;1177;71477;-71
2021/09/22 07:18:18;;;;;;;;;;;;;;;6.02;80.00;97825.46;117029;1177;69824;-69
2021/09/22 07:20:48;;;;;;;;;;;;;;;5.97;80.59;97828.96;116970;1177;69284;-70
2021/09/22 07:23:18;;;;;;;;;;;;;;;5.82;81.47;97830.35;117049;1177;59512;-70
2021/09/22 07:25:47;;;;;;;;;;;;;;;5.85;80.34;97826.59;116996;1177;59492;-70
2021/09/22 07:28:16;;;;;;;;;;;;;;;5.81;81.90;97828.48;117040;1177;72087;-70
2021/09/22 07:30:45;;;;;;;;;;;;;;;5.80;82.35;97830.25;117048;1177;68356;-71
2021/09/22 07:33:14;;;;;;;;;;;;;;;5.82;82.49;97828.77;117053;1177;69209;-70
2021/09/22 07:35:42;;;;;;;;;;;;;;;5.85;82.15;97828.98;117028;1177;59519;-69
2021/09/22 07:38:11;;;;;;;;;;;;;;;5.87;82.02;97820.06;117060;1177;59492;-69
2021/09/22 07:40:40;;;;;;;;;;;;;;;5.90;82.43;97818.36;117001;1177;70819;-70
2021/09/22 07:43:09;;;;;;;;;;;;;;;6.02;81.62;97815.73;117074;1177;69233;-69
2021/09/22 07:45:38;;;;;;;;;;;;;;;6.17;81.89;97815.23;117011;1177;68633;-69
2021/09/22 07:48:07;;;;;;;;;;;;;;;6.23;80.82;97814.72;117018;1177;59523;-69
2021/09/22 07:50:36;;;;;;;;;;;;;;;6.35;80.17;97814.98;116971;1177;59525;-70
2021/09/22 07:53:05;;;;;;;;;;;;;;;6.44;79.73;97820.84;116931;1177;70546;-70
2021/09/22 07:55:34;;;;;;;;;;;;;;;6.49;79.93;97815.33;117046;1177;68571;-70
2021/09/22 07:58:03;;;;;;;;;;;;;;;6.60;79.32;97811.15;117081;1177;69179;-71
2021/09/22 08:00:31;;;;;;;;;;;;;;;6.67;80.84;97812.74;116938;1178;59543;-70
2021/09/22 08:03:00;;;;;;;;;;;;;;;6.67;81.52;97814.80;117163;1177;59560;-70
2021/09/22 08:05:32;;;;;;;;;;;;;;;6.72;80.38;97817.48;117005;1177;70850;-70
2021/09/22 08:08:00;;;;;;;;;;;;;;;6.72;80.99;97816.30;117056;1177;69051;-72
2021/09/22 08:10:29;;;;;;;;;;;;;;;6.68;81.34;97815.11;117044;1177;69248;-71
2021/09/22 08:13:02;;;;;;;;;;;;;;;6.73;80.43;97811.02;116960;1177;59532;-71
2021/09/22 08:15:31;;;;;;;;;;;;;;;6.83;79.96;97809.32;116948;1177;59497;-70
2021/09/22 08:18:00;;;;;;;;;;;;;;;6.89;80.01;97814.01;117011;1177;71401;-70
2021/09/22 08:20:29;;;;;;;;;;;;;;;6.92;79.49;97813.15;116989;1177;69846;-69
2021/09/22 08:22:57;;;;;;;;;;;;;;;6.93;79.29;97816.58;116971;1177;68903;-71
2021/09/22 08:25:26;;;;;;;;;;;;;;;6.93;79.35;97816.45;117025;1177;59535;-70
2021/09/22 08:27:55;;;;;;;;;;;;;;;6.91;79.51;97816.00;117036;1177;59535;-70
2021/09/22 08:30:24;;;;;;;;;;;;;;;6.92;80.13;97810.61;116943;1177;71483;-70
2021/09/22 08:32:53;;;;;;;;;;;;;;;6.92;80.53;97810.59;116957;1177;68553;-70
2021/09/22 08:35:21;;;;;;;;;;;;;;;6.95;80.49;97806.77;117038;1178;68303;-70
2021/09/22 08:37:50;;;;;;;;;;;;;;;6.98;79.76;97804.02;117049;1177;59507;-70
2021/09/22 08:40:19;;;;;;;;;;;;;;;7.03;79.66;97799.25;117028;1177;59555;-70
2021/09/22 08:42:48;;;;;;;;;;;;;;;7.08;79.27;97794.48;117020;1177;71403;-70
2021/09/22 08:45:17;;;;;;;;;;;;;;;7.16;78.69;97788.02;117084;1176;68348;-70
2021/09/22 08:47:47;;;;;;;;;;;;;;;7.22;78.45;97789.27;117047;1177;69309;-70
2021/09/22 08:50:18;;;;;;;;;;;;;;;7.25;78.71;97785.46;116995;1177;59534;-69
2021/09/22 08:52:48;;;;;;;;;;;;;;;7.30;78.63;97785.88;117001;1177;59533;-70
2021/09/22 08:55:17;;;;;;;;;;;;;;;7.38;78.32;97771.71;116937;1177;71393;-69
2021/09/22 08:57:46;;;;;;;;;;;;;;;7.38;78.60;97769.34;117030;1177;68290;-72
2021/09/22 09:00:15;;;;;;;;;;;;;;;7.33;79.33;97767.32;116988;1177;68256;-70
2021/09/22 09:02:46;;;;;;;;;;;;;;;7.35;79.41;97769.33;117016;1177;59539;-69
2021/09/22 09:05:17;;;;;;;;;;;;;;;7.33;79.96;97770.95;117000;1176;59538;-70
2021/09/22 09:07:46;;;;;;;;;;;;;;;7.34;81.17;97771.61;116950;1178;72095;-69
2021/09/22 09:10:16;;;;;;;;;;;;;;;7.37;79.72;97766.21;116986;1177;68682;-69
2021/09/22 09:12:44;;;;;;;;;;;;;;;7.39;81.03;97766.29;117018;1177;69887;-70
2021/09/22 09:15:14;;;;;;;;;;;;;;;7.43;81.68;97760.92;117022;1177;59598;-71
2021/09/22 09:17:49;;;;;;;;;;;;;;;7.51;79.98;97758.57;117132;1177;59530;-72
2021/09/22 09:20:22;;;;;;;;;;;;;;;7.57;80.93;97759.58;117021;1177;72442;-70
2021/09/22 09:23:00;;;;;;;;;;;;;;;7.64;81.01;97751.91;116995;1177;68594;-70
2021/09/22 09:25:30;;;;;;;;;;;;;;;7.67;80.89;97749.83;117007;1177;68741;-70
2021/09/22 09:27:58;;;;;;;;;;;;;;;7.69;81.15;97751.69;117004;1177;59602;-72
2021/09/22 09:30:27;;;;;;;;;;;;;;;7.71;80.25;97751.35;117030;1177;59539;-70
2021/09/22 09:32:56;;;;;;;;;;;;;;;7.74;79.10;97748.23;116963;1177;71368;-70
2021/09/22 09:35:25;;;;;;;;;;;;;;;7.74;78.80;97742.86;117008;1177;68712;-70
2021/09/22 09:37:54;;;;;;;;;;;;;;;7.74;79.92;97742.56;117009;1177;68580;-70
2021/09/22 09:40:28;;;;;;;;;;;;;;;7.76;78.83;97742.60;116942;1177;59612;-70
2021/09/22 09:43:00;;;;;;;;;;;;;;;7.77;78.50;97742.36;116998;1177;59544;-70
2021/09/22 09:45:37;;;;;;;;;;;;;;;7.72;78.44;97736.58;117010;1177;71302;-69
2021/09/22 09:48:06;;;;;;;;;;;;;;;7.72;78.55;97734.11;117015;1177;68452;-69
2021/09/22 09:50:38;;;;;;;;;;;;;;;7.69;78.97;97734.14;116980;1177;69300;-71
2021/09/22 09:53:07;;;;;;;;;;;;;;;7.70;78.97;97729.21;116959;1177;59559;-70
2021/09/22 09:55:39;;;;;;;;;;;;;;;7.76;79.06;97730.82;117060;1177;59933;-70
2021/09/22 09:58:08;;;;;;;;;;;;;;;7.79;79.17;97728.55;116937;1177;72001;-70
2021/09/22 10:00:37;;;;;;;;;;;;;;;7.86;80.01;97730.71;117005;1177;68450;-70
2021/09/22 10:03:09;;;;;;;;;;;;;;;7.98;79.13;97730.05;117053;1177;69174;-69
2021/09/22 10:05:39;;;;;;;;;;;;;;;8.07;78.88;97724.48;116883;1179;59477;-71
2021/09/22 10:08:12;;;;;;;;;;;;;;;8.18;78.37;97724.03;116987;1177;59577;-70
2021/09/22 10:10:43;;;;;;;;;;;;;;;8.26;78.50;97724.09;117072;1177;72102;-70
2021/09/22 10:13:13;;;;;;;;;;;;;;;8.35;78.14;97720.30;117011;1178;68338;-69
2021/09/22 10:15:44;;;;;;;;;;;;;;;8.45;78.46;97719.38;117029;1177;68432;-70
2021/09/22 10:18:13;;;;;;;;;;;;;;;8.52;78.05;97714.77;116957;1177;59535;-70
2021/09/22 10:20:43;;;;;;;;;;;;;;;8.57;77.97;97716.20;117032;1177;59526;-70
2021/09/22 10:23:23;;;;;;;;;;;;;;;8.57;77.14;97717.58;116921;1177;71382;-73
2021/09/22 10:25:51;;;;;;;;;;;;;;;8.62;77.11;97714.33;117007;1177;69194;-70
2021/09/22 10:28:35;;;;;;;;;;;;;;;8.60;77.48;97721.95;116983;1177;69162;-70
2021/09/22 10:31:13;;;;;;;;;;;;;;;8.68;77.47;97717.48;117021;1177;59488;-70
2021/09/22 10:33:46;;;;;;;;;;;;;;;8.78;77.05;97719.34;117033;1177;59875;-70
2021/09/22 10:36:17;;;;;;;;;;;;;;;8.86;76.66;97717.06;117049;1177;70503;-70
2021/09/22 10:38:47;;;;;;;;;;;;;;;8.97;76.43;97719.86;116922;1177;69341;-70
2021/09/22 10:41:24;;;;;;;;;;;;;;;9.04;76.08;97716.13;116915;1178;69924;-71
2021/09/22 10:43:52;;;;;;;;;;;;;;;9.09;75.39;97712.50;116983;1177;59956;-70
2021/09/22 10:46:22;;;;;;;;;;;;;;;9.18;75.93;97713.86;117020;1177;59558;-70
2021/09/22 10:48:50;;;;;;;;;;;;;;;9.28;74.57;97711.85;117018;1177;70684;-70
2021/09/22 10:51:33;;;;;;;;;;;;;;;9.21;73.57;97710.02;117016;1177;69276;-70
2021/09/22 10:54:12;;;;;;;;;;;;;;;9.22;73.51;97708.94;116996;1177;69336;-70
2021/09/22 10:56:52;;;;;;;;;;;;;;;9.24;74.54;97711.45;117000;1177;59653;-69
2021/09/22 10:59:26;;;;;;;;;;;;;;;9.12;75.46;97706.95;116992;1177;59506;-70
2021/09/22 11:01:55;;;;;;;;;;;;;;;9.25;75.00;97703.55;117020;1177;72007;-70
2021/09/22 11:04:25;;;;;;;;;;;;;;;9.29;75.59;97702.92;117035;1177;69000;-70
2021/09/22 11:06:54;;;;;;;;;;;;;;;9.08;75.70;97699.89;117012;1177;69280;-71
2021/09/22 11:09:24;;;;;;;;;;;;;;;9.13;76.24;97700.09;117113;1177;59482;-73
2021/09/22 11:11:55;;;;;;;;;;;;;;;9.07;75.21;97701.36;117071;1177;59493;-71
2021/09/22 11:14:28;;;;;;;;;;;;;;;8.99;75.50;97701.48;117052;1177;70605;-70
2021/09/22 11:16:58;;;;;;;;;;;;;;;9.02;75.36;97699.76;117136;1176;68396;-70
2021/09/22 11:19:28;;;;;;;;;;;;;;;9.09;75.36;97703.88;116963;1177;68323;-70
2021/09/22 11:21:57;;;;;;;;;;;;;;;9.17;76.46;97702.96;116990;1177;59492;-70
2021/09/22 11:24:28;;;;;;;;;;;;;;;9.05;76.38;97698.66;117198;1177;59507;-70
2021/09/22 11:26:59;;;;;;;;;;;;;;;9.17;75.52;97693.95;117173;1177;70414;-70
2021/09/22 11:29:36;;;;;;;;;;;;;;;9.17;76.03;97694.29;117083;1177;68543;-72
2021/09/22 11:32:07;;;;;;;;;;;;;;;9.19;75.50;97692.94;117029;1177;69225;-70
2021/09/22 11:34:39;;;;;;;;;;;;;;;9.21;76.31;97699.10;117039;1177;59576;-71
2021/09/22 11:37:09;;;;;;;;;;;;;;;9.27;76.18;97699.60;117046;1177;59501;-70
2021/09/22 11:39:39;;;;;;;;;;;;;;;9.15;75.13;97700.98;117028;1177;71421;-70
2021/09/22 11:42:09;;;;;;;;;;;;;;;9.22;74.28;97696.09;116962;1177;69243;-70
2021/09/22 11:44:39;;;;;;;;;;;;;;;9.22;75.22;97695.04;117008;1177;69990;-69
2021/09/22 11:47:09;;;;;;;;;;;;;;;9.31;75.03;97693.06;116993;1178;59548;-70
2021/09/22 11:49:39;;;;;;;;;;;;;;;9.47;74.70;97686.86;116984;1177;59564;-71
2021/09/22 11:52:13;;;;;;;;;;;;;;;9.62;73.64;97683.44;116998;1177;70578;-69
2021/09/22 11:54:44;;;;;;;;;;;;;;;9.57;74.78;97679.23;116976;1177;68585;-72
2021/09/22 11:57:15;;;;;;;;;;;;;;;9.55;73.40;97679.39;116998;1177;69305;-70
2021/09/22 11:59:45;;;;;;;;;;;;;;;9.64;73.41;97678.77;116963;1177;59498;-70
2021/09/22 12:02:15;;;;;;;;;;;;;;;9.51;72.44;97676.65;116848;1178;59545;-70
2021/09/22 12:04:46;;;;;;;;;;;;;;;9.43;72.47;97673.88;117011;1177;71468;-71
2021/09/22 12:07:15;;;;;;;;;;;;;;;9.48;72.40;97672.17;117015;1177;69194;-70
2021/09/22 12:09:48;;;;;;;;;;;;;;;9.58;72.48;97671.84;117043;1177;69294;-70
2021/09/22 12:12:20;;;;;;;;;;;;;;;9.71;72.65;97673.80;117030;1178;59522;-71
2021/09/22 12:14:53;;;;;;;;;;;;;;;9.85;72.54;97669.73;117110;1177;59475;-69
2021/09/22 12:17:24;;;;;;;;;;;;;;;9.97;73.41;97667.89;116997;1177;71406;-71
2021/09/22 12:19:52;;;;;;;;;;;;;;;10.08;72.88;97667.52;117000;1177;69785;-70
2021/09/22 12:22:22;;;;;;;;;;;;;;;10.20;72.94;97671.09;117119;1176;69078;-73
2021/09/22 12:24:51;;;;;;;;;;;;;;;10.24;71.98;97672.95;116969;1177;59561;-70
2021/09/22 12:27:21;;;;;;;;;;;;;;;10.23;72.36;97674.58;117002;1177;59564;-70
2021/09/22 12:29:54;;;;;;;;;;;;;;;10.23;71.78;97673.36;117022;1177;70394;-70
2021/09/22 12:32:23;;;;;;;;;;;;;;;10.15;71.85;97671.02;117016;1177;69208;-71
2021/09/22 12:34:52;;;;;;;;;;;;;;;10.18;72.12;97669.66;117023;1177;68479;-70
2021/09/22 12:37:23;;;;;;;;;;;;;;;10.18;72.42;97666.16;117066;1177;59586;-71
2021/09/22 12:39:56;;;;;;;;;;;;;;;10.18;72.17;97665.29;117022;1177;59541;-70
2021/09/22 12:42:35;;;;;;;;;;;;;;;10.18;72.07;97664.93;117057;1177;71629;-70
2021/09/22 12:45:06;;;;;;;;;;;;;;;10.17;72.16;97665.70;117004;1177;69146;-70
2021/09/22 12:47:36;;;;;;;;;;;;;;;10.13;71.96;97663.34;117028;1177;69309;-70
2021/09/22 12:50:06;;;;;;;;;;;;;;;10.12;71.91;97664.30;116989;1177;59506;-72
2021/09/22 12:52:35;;;;;;;;;;;;;;;10.08;72.13;97662.48;117059;1177;59530;-70
2021/09/22 12:55:11;;;;;;;;;;;;;;;10.06;72.04;97657.41;116886;1179;71276;-70
2021/09/22 12:57:44;;;;;;;;;;;;;;;10.05;71.90;97658.68;117014;1177;68418;-70
2021/09/22 13:00:26;;;;;;;;;;;;;;;10.05;71.79;97654.87;116997;1177;68726;-70
2021/09/22 13:03:13;;;;;;;;;;;;;;;10.03;72.43;97648.88;116994;1177;59529;-70
2021/09/22 13:05:43;;;;;;;;;;;;;;;10.05;72.09;97641.27;117092;1177;59517;-70
2021/09/22 13:08:14;;;;;;;;;;;;;;;10.11;71.56;97642.80;117072;1177;70603;-71
2021/09/22 13:10:53;;;;;;;;;;;;;;;10.18;71.10;97636.02;117001;1177;68548;-70
2021/09/22 13:13:23;;;;;;;;;;;;;;;10.28;71.20;97634.88;116917;1178;68454;-72
2021/09/22 13:15:52;;;;;;;;;;;;;;;10.33;70.84;97634.20;117020;1178;59635;-70
2021/09/22 13:18:24;;;;;;;;;;;;;;;10.33;70.95;97633.45;117229;1177;59493;-71